Latest Coastal Weather Observations for Moorabbin Airport

IDV60701

Issued at 7:51 pm EDT Tuesday 17 January 2017 (issued every 10 minutes, with the page automatically refreshed every 10 minutes)

About coastal observations | Map of coastal stations | Coastal observations for VIC | Marine services | Other Formats
Station Details ID: 086077 Name: MOORABBIN AIRPORT Lat: -37.98 Lon: 145.10 Height: 12.1 m
Data from the previous 72 hours. | See also: Recent months at Moorabbin Airport
Date/Time
EDT
Temp
°C
Wind Pressure Rain since
9am
mm
Weather Cloud Vis
km
Sea
Height
m
Swell
Dir  Spd
kts
Gust
kts
hPa Trend Height
m
Period
s
Dir
17/07:30pm 29.0 SE 8 11 1004.5 - 0.0 - - 10 - - - -
17/07:00pm 29.6 SE 10 13 1004.5 - 0.0 - - 10 - - - -
17/06:30pm 31.0 SE 11 15 1004.2 - 0.0 - - 10 - - - -
17/06:00pm 32.4 S 9 13 1004.3 - 0.0 - Mostly cloudy 10 - - - -
17/05:30pm 31.4 S 11 16 1004.6 - 0.0 - - 10 - - - -
17/05:00pm 32.4 S 15 19 1004.8 - 0.0 - - 10 - - - -
17/04:57pm 32.0 S 15 19 1004.8 - 0.0 - - 10 - - - -
17/04:30pm 34.5 SSW 6 9 1004.9 - 0.0 - - 10 - - - -
17/04:00pm 34.9 SE 3 5 1005.3 - 0.0 - - 10 - - - -
17/03:30pm 33.7 SSW 4 7 1005.9 - 0.0 - - 10 - - - -
17/03:00pm 32.9 SSW 7 11 1006.4 - 0.0 - Partly cloudy 10 - - - -
17/02:30pm 32.2 S 7 10 1006.7 - 0.0 - - 10 - - - -
17/02:00pm 31.5 S 5 7 1007.0 - 0.0 - - 10 - - - -
17/01:30pm 31.5 SSW 11 14 1007.6 - 0.0 - - 10 - - - -
17/01:00pm 31.1 SSW 10 14 1007.7 - 0.0 - - 10 - - - -
17/12:30pm 27.6 SSW 9 12 1007.8 - 0.0 - - 10 - - - -
17/12:00pm 27.4 SSW 9 13 1007.4 - 0.0 - Partly cloudy 10 - - - -
17/11:30am 31.0 SW 6 13 1007.4 - 0.0 - - 10 - - - -
17/11:00am 31.8 NNW 9 13 1007.9 - 0.0 - - 10 - - - -
17/10:30am 30.7 NNW 9 13 1008.1 - 0.0 - - 10 - - - -
17/10:00am 29.6 NNW 8 11 1008.6 - 0.0 - - 10 - - - -
17/09:30am 27.7 NNW 5 6 1009.0 - 0.0 - - 10 - - - -
17/09:00am 26.4 WSW 4 7 1009.1 - 0.0 - Partly cloudy 10 - - - -
17/08:30am 25.9 NNW 4 6 1009.1 - 0.0 - - 10 - - - -
17/08:00am 23.9 NW 3 6 1009.2 - 0.0 - - 10 - - - -
17/07:30am 21.7 NW 1 3 1008.9 - 0.0 - - 10 - - - -
17/07:00am 21.4 WNW 3 5 1008.7 - 0.0 - - 10 - - - -
17/06:30am 21.5 NW 2 4 1008.3 - 0.0 - - 10 - - - -
17/06:00am 21.9 W 5 6 1008.1 - 0.0 - - 10 - - - -
17/05:30am 23.5 W 5 6 1007.6 - 0.0 - - 10 - - - -
17/05:00am 24.9 N 12 16 1006.8 - 0.0 - - 10 - - - -
17/04:30am 24.4 N 11 15 1006.9 - 0.0 - - 10 - - - -
17/04:00am 23.0 N 8 11 1006.8 - 0.0 - - 10 - - - -
17/03:30am 19.4 CALM 0 0 1007.2 - 0.0 - - 10 - - - -
17/03:00am 19.2 CALM 0 0 1007.5 - 0.0 - - 10 - - - -
17/02:30am 21.4 NNW 4 6 1007.8 - 0.0 - - 10 - - - -
17/02:00am 21.2 N 5 6 1007.8 - 0.0 - - 10 - - - -
17/01:30am 21.3 N 4 5 1008.1 - 0.0 - - 10 - - - -
17/01:00am 21.0 NNE 4 5 1008.7 - 0.0 - - 10 - - - -
17/12:30am 22.0 CALM 0 3 1009.3 - 0.0 - - 10 - - - -
17/12:00am 22.8 ENE 3 5 1009.4 - 0.0 - Mostly cloudy 10 - - - -
 
Date/Time
EDT
Temp
°C
Wind Pressure Rain since
9am
mm
Weather Cloud Vis
km
Sea
Height
m
Swell
Dir  Spd
kts
Gust
kts
hPa Trend Height
m
Period
s
Dir
16/11:30pm 22.3 CALM 0 0 1009.8 - 0.0 - - 10 - - - -
16/11:00pm 22.8 SSW 7 11 1010.0 - 0.0 - - 10 - - - -
16/10:30pm 22.9 S 5 7 1009.5 - 0.0 - - 10 - - - -
16/10:00pm 23.6 E 4 7 1009.6 - 0.0 - - 10 - - - -
16/09:30pm 23.5 ESE 6 7 1009.9 - 0.0 - - 10 - - - -
16/09:00pm 23.9 ESE 6 8 1009.8 - 0.0 - - 10 - - - -
16/08:30pm 25.5 SE 9 11 1010.1 - 0.0 - - 10 - - - -
16/08:00pm 27.3 SE 10 13 1010.0 - 0.0 - - 10 - - - -
16/07:30pm 28.3 SE 11 16 1010.0 - 0.0 - - 10 - - - -
16/07:00pm 28.2 S 7 9 1009.7 - 0.0 - - 10 - - - -
16/06:30pm 27.1 SSW 11 14 1009.7 - 0.0 - - 10 - - - -
16/06:00pm 29.7 SSW 8 10 1009.5 - 0.0 - - 10 - - - -
16/05:30pm 29.7 SSW 8 10 1009.9 - 0.0 - - 10 - - - -
16/05:00pm 29.4 S 8 10 1010.2 - 0.0 - - 10 - - - -
16/04:30pm 28.7 SSW 10 12 1010.7 - 0.0 - - 10 - - - -
16/04:00pm 28.0 SSW 10 12 1011.1 - 0.0 - - 10 - - - -
16/03:30pm 26.9 SSW 9 12 1011.7 - 0.0 - - 10 - - - -
16/03:00pm 26.5 S 9 13 1012.1 - 0.0 - - 10 - - - -
16/02:30pm 26.3 SSW 8 11 1012.6 - 0.0 - - 10 - - - -
16/02:00pm 26.4 SSW 8 11 1013.2 - 0.0 - - 10 - - - -
16/01:30pm 24.7 SSW 7 9 1013.7 - 0.0 - - 10 - - - -
16/01:00pm 23.4 SW 10 13 1014.1 - 0.0 - - 10 - - - -
16/12:30pm 25.2 NE 3 8 1014.1 - 0.0 - - 10 - - - -
16/12:00pm 23.4 NNE 5 10 1014.4 - 0.0 - - 10 - - - -
16/11:30am 21.8 N 3 6 1014.9 - 0.0 - - 10 - - - -
16/11:00am 20.6 SE 2 6 1015.5 - 0.0 - - 10 - - - -
16/10:30am 19.4 N 2 8 1015.8 - 0.0 - - 10 - - - -
16/10:00am 18.5 NNE 6 8 1015.6 - 0.0 - - 10 - - - -
16/09:30am 18.0 E 5 7 1015.8 - 0.0 - - 10 - - - -
16/09:00am 17.5 E 4 7 1016.3 - 0.0 - - 10 - - - -
16/08:30am 16.7 ENE 5 7 1016.3 - 0.0 - - 10 - - - -
16/08:00am 15.2 NNE 4 6 1016.3 - 0.0 - - 10 - - - -
16/07:30am 13.8 CALM 0 0 1016.2 - 0.0 - - 10 - - - -
16/07:00am 12.3 CALM 0 0 1016.2 - 0.0 - - 10 - - - -
16/06:30am 11.5 CALM 0 0 1015.9 - 0.0 - - 10 - - - -
16/06:00am 10.8 CALM 0 0 1015.9 - 0.0 - - 10 - - - -
16/05:30am 11.3 CALM 0 0 1015.8 - 0.0 - - 10 - - - -
16/05:00am 11.5 CALM 0 0 1015.6 - 0.0 - - 10 - - - -
16/04:30am 11.4 CALM 0 0 1015.5 - 0.0 - - 10 - - - -
16/04:00am 12.3 CALM 0 0 1015.4 - 0.0 - - 10 - - - -
16/03:30am 11.6 CALM 0 0 1015.5 - 0.0 - - 10 - - - -
16/03:00am 11.6 SE 3 3 1015.8 - 0.0 - - 10 - - - -
16/02:30am 11.7 SE 4 5 1015.9 - 0.0 - - 10 - - - -
16/02:00am 12.2 SE 4 7 1016.3 - 0.0 - - 10 - - - -
16/01:30am 12.6 SSE 4 5 1016.6 - 0.0 - - 10 - - - -
16/01:00am 13.1 SE 5 6 1016.8 - 0.0 - - 10 - - - -
16/12:30am 13.3 SE 5 6 1017.0 - 0.0 - - 10 - - - -
16/12:00am 13.6 SSE 4 6 1017.2 - 0.0 - - 10 - - - -
 
Date/Time
EDT
Temp
°C
Wind Pressure Rain since
9am
mm
Weather Cloud Vis
km
Sea
Height
m
Swell
Dir  Spd
kts
Gust
kts
hPa Trend Height
m
Period
s
Dir
15/11:30pm 14.1 S 5 7 1017.4 - 0.0 - - 10 - - - -
15/11:00pm 14.0 SE 5 6 1017.4 - 0.0 - - 10 - - - -
15/10:30pm 14.4 SE 6 8 1017.6 - 0.0 - - 10 - - - -
15/10:00pm 14.9 SE 7 8 1017.7 - 0.0 - - 10 - - - -
15/09:30pm 15.5 ESE 7 9 1017.7 - 0.0 - - 10 - - - -
15/09:00pm 16.4 SE 7 11 1017.7 - 0.0 - - 10 - - - -
15/08:30pm 17.3 SE 10 12 1017.6 - 0.0 - - 10 - - - -
15/08:00pm 18.3 SSE 10 13 1017.3 - 0.0 - - 10 - - - -
15/07:30pm 19.0 S 10 13 1017.2 - 0.0 - - 10 - - - -
15/07:00pm 19.4 SSW 11 16 1017.3 - 0.0 - - 10 - - - -
15/06:30pm 19.1 SSW 12 16 1017.3 - 0.0 - - 10 - - - -
15/06:00pm 19.8 SSW 12 16 1017.4 - 0.0 - - 10 - - - -
15/05:30pm 20.0 SSW 11 16 1017.3 - 0.0 - - 10 - - - -
15/05:00pm 20.3 SSW 9 12 1017.5 - 0.0 - - 10 - - - -
15/04:30pm 20.6 SSW 8 13 1017.7 - 0.0 - - 10 - - - -
15/04:00pm 20.3 SSW 8 11 1017.8 - 0.0 - - 10 - - - -
15/03:30pm 19.2 S 9 16 1018.0 - 0.0 - - 10 - - - -
15/03:00pm 19.1 SSW 9 14 1018.4 - 0.0 - - 10 - - - -
15/02:30pm 19.3 SSW 10 14 1018.6 - 0.0 - - 10 - - - -
15/02:00pm 19.1 SW 10 14 1018.6 - 0.0 - Partly cloudy 10 - - - -
15/01:30pm 19.1 SW 10 14 1018.9 - 0.0 - Cloudy 10 - - - -
15/01:00pm 18.4 SSW 9 14 1019.1 - 0.0 - Cloudy 10 - - - -
15/12:30pm 18.1 SW 8 14 1019.0 - 0.0 - Cloudy 10 - - - -
15/12:00pm 18.4 SSW 7 11 1019.0 - 0.0 - Cloudy 10 - - - -
15/11:30am 17.8 WSW 6 12 1018.9 - 0.0 - Cloudy 10 - - - -
15/11:00am 17.5 WSW 7 10 1018.9 - 0.0 - Cloudy 10 - - - -
15/10:30am 17.0 WSW 7 11 1019.1 - 0.0 - Cloudy 10 - - - -
15/10:00am 16.7 SW 7 10 1019.1 - 0.0 - Cloudy 10 - - - -
15/09:30am 16.6 WSW 7 10 1018.8 - 0.0 - Cloudy 10 - - - -
15/09:00am 16.4 SW 7 10 1018.7 - 0.0 - Cloudy 10 - - - -
15/08:30am 16.2 SW 9 11 1018.6 - 0.0 - Cloudy 10 - - - -
15/08:00am 15.9 SW 8 11 1018.3 - 0.0 - Cloudy 10 - - - -
15/07:30am 15.9 SW 7 10 1017.8 - 0.0 - Cloudy 10 - - - -
15/07:00am 15.7 SW 6 9 1017.7 - 0.0 - Cloudy 10 - - - -
15/06:30am 15.7 SW 9 13 1017.5 - 0.0 - Cloudy 10 - - - -
15/06:00am 15.8 SW 9 11 1017.2 - 0.0 - Cloudy 10 - - - -
15/05:30am 15.9 SW 8 11 1016.9 - 0.0 - Cloudy 10 - - - -
15/05:00am 16.1 SW 8 12 1016.6 - 0.0 - Cloudy 10 - - - -
15/04:30am 16.1 SSW 11 15 1016.3 - 0.0 - Partly cloudy 10 - - - -
15/04:00am 16.1 SW 8 13 1016.2 - 0.0 - Cloudy 10 - - - -
15/03:30am 15.9 WSW 7 11 1015.8 - 0.0 - Partly cloudy 10 - - - -
15/03:00am 16.0 WSW 11 14 1015.9 - 0.0 - Cloudy 10 - - - -
15/02:30am 16.6 SW 11 16 1016.0 - 0.0 - Cloudy 10 - - - -
15/02:00am 16.4 SSW 12 18 1016.4 - 0.0 - Cloudy 10 - - - -
15/01:30am 16.5 SW 12 16 1016.3 - 0.0 - Partly cloudy 10 - - - -
15/01:00am 16.4 SW 11 17 1016.4 - 0.0 - Partly cloudy 10 - - - -
15/12:30am 16.8 SW 9 13 1016.2 - 0.0 - Partly cloudy 10 - - - -
15/12:00am 16.9 SW 13 18 1016.3 - 0.0 - Cloudy 10 - - - -
 
Date/Time
EDT
Temp
°C
Wind Pressure Rain since
9am
mm
Weather Cloud Vis
km
Sea
Height
m
Swell
Dir  Spd
kts
Gust
kts
hPa Trend Height
m
Period
s
Dir
14/11:30pm 16.7 WSW 10 16 1016.1 - 0.0 - Cloudy 10 - - - -
14/11:00pm 16.9 SW 11 18 1015.9 - 0.0 - Partly cloudy 10 - - - -
14/10:30pm 17.1 SW 12 18 1015.9 - 0.0 - Partly cloudy 10 - - - -
14/10:00pm 17.1 SW 15 20 1015.5 - 0.0 - Partly cloudy 10 - - - -
14/09:30pm 17.2 SW 13 20 1015.2 - 0.0 - Partly cloudy 10 - - - -
14/09:00pm 17.2 SSW 14 20 1014.9 - 0.0 - Partly cloudy 10 - - - -
14/08:30pm 17.4 SW 13 18 1014.6 - 0.0 - - 10 - - - -
14/08:00pm 18.0 SW 15 20 1014.1 - 0.0 - Partly cloudy 10 - - - -

Other Formats:

Comma delimited format used in spreadsheet applications
http://www.bom.gov.au/fwo/IDV60701/IDV60701.94870.axf

JavaScript Object Notation format (JSON) in row-major order
http://www.bom.gov.au/fwo/IDV60701/IDV60701.94870.json